sensor_id;sensor_type;location;lat;lon;timestamp;temperature;humidity
4647;DHT22;2336;47.822;7.564;2023-02-12T00:01:13;-1.40;99.90
4647;DHT22;2336;47.822;7.564;2023-02-12T00:03:40;-1.40;99.90
4647;DHT22;2336;47.822;7.564;2023-02-12T00:06:08;-1.40;99.90
4647;DHT22;2336;47.822;7.564;2023-02-12T00:08:37;-1.40;99.90
4647;DHT22;2336;47.822;7.564;2023-02-12T00:11:08;-1.30;99.90
4647;DHT22;2336;47.822;7.564;2023-02-12T00:13:35;-1.30;99.90
4647;DHT22;2336;47.822;7.564;2023-02-12T00:16:04;-1.30;99.90
4647;DHT22;2336;47.822;7.564;2023-02-12T00:18:31;-1.30;99.90
4647;DHT22;2336;47.822;7.564;2023-02-12T00:20:58;-1.40;99.90
4647;DHT22;2336;47.822;7.564;2023-02-12T00:23:24;-1.40;99.90
4647;DHT22;2336;47.822;7.564;2023-02-12T00:25:52;-1.50;99.90
4647;DHT22;2336;47.822;7.564;2023-02-12T00:28:19;-1.50;99.90
4647;DHT22;2336;47.822;7.564;2023-02-12T00:30:46;-1.60;99.90
4647;DHT22;2336;47.822;7.564;2023-02-12T00:33:13;-1.60;99.90
4647;DHT22;2336;47.822;7.564;2023-02-12T00:35:40;-1.60;99.90
4647;DHT22;2336;47.822;7.564;2023-02-12T00:38:06;-1.60;99.90
4647;DHT22;2336;47.822;7.564;2023-02-12T00:40:33;-1.60;99.90
4647;DHT22;2336;47.822;7.564;2023-02-12T00:43:01;-1.60;99.90
4647;DHT22;2336;47.822;7.564;2023-02-12T00:45:28;-1.60;99.90
4647;DHT22;2336;47.822;7.564;2023-02-12T00:47:54;-1.50;99.90
4647;DHT22;2336;47.822;7.564;2023-02-12T00:50:21;-1.50;99.90
4647;DHT22;2336;47.822;7.564;2023-02-12T00:52:48;-1.50;99.90
4647;DHT22;2336;47.822;7.564;2023-02-12T00:55:14;-1.50;99.90
4647;DHT22;2336;47.822;7.564;2023-02-12T00:57:41;-1.60;99.90
4647;DHT22;2336;47.822;7.564;2023-02-12T01:00:11;-1.60;99.90
4647;DHT22;2336;47.822;7.564;2023-02-12T01:02:37;-1.70;99.90
4647;DHT22;2336;47.822;7.564;2023-02-12T01:05:05;-1.70;99.90
4647;DHT22;2336;47.822;7.564;2023-02-12T01:07:31;-1.70;99.90
4647;DHT22;2336;47.822;7.564;2023-02-12T01:09:58;-1.70;99.90
4647;DHT22;2336;47.822;7.564;2023-02-12T01:12:25;-1.80;99.90
4647;DHT22;2336;47.822;7.564;2023-02-12T01:14:51;-1.50;99.90
4647;DHT22;2336;47.822;7.564;2023-02-12T01:17:19;-1.30;99.90
4647;DHT22;2336;47.822;7.564;2023-02-12T01:19:46;-1.00;99.90
4647;DHT22;2336;47.822;7.564;2023-02-12T01:22:13;-0.90;99.90
4647;DHT22;2336;47.822;7.564;2023-02-12T01:24:39;-0.80;99.90
4647;DHT22;2336;47.822;7.564;2023-02-12T01:27:06;-0.80;99.90
4647;DHT22;2336;47.822;7.564;2023-02-12T01:29:33;-0.80;99.90
4647;DHT22;2336;47.822;7.564;2023-02-12T01:32:00;-0.80;99.90
4647;DHT22;2336;47.822;7.564;2023-02-12T01:34:28;-0.80;99.90
4647;DHT22;2336;47.822;7.564;2023-02-12T01:36:55;-0.80;99.90
4647;DHT22;2336;47.822;7.564;2023-02-12T01:39:21;-0.70;99.90
4647;DHT22;2336;47.822;7.564;2023-02-12T01:41:48;-0.70;99.90
4647;DHT22;2336;47.822;7.564;2023-02-12T01:44:17;-0.70;99.90
4647;DHT22;2336;47.822;7.564;2023-02-12T01:46:46;-0.60;99.90
4647;DHT22;2336;47.822;7.564;2023-02-12T01:49:16;-0.70;99.90
4647;DHT22;2336;47.822;7.564;2023-02-12T01:51:46;-0.80;99.90
4647;DHT22;2336;47.822;7.564;2023-02-12T01:54:14;-0.90;99.90
4647;DHT22;2336;47.822;7.564;2023-02-12T01:56:42;-0.80;99.90
4647;DHT22;2336;47.822;7.564;2023-02-12T01:59:10;-0.80;99.90
4647;DHT22;2336;47.822;7.564;2023-02-12T02:01:37;-0.70;99.90
4647;DHT22;2336;47.822;7.564;2023-02-12T02:04:07;-0.70;99.90
4647;DHT22;2336;47.822;7.564;2023-02-12T02:06:38;-0.80;99.90
4647;DHT22;2336;47.822;7.564;2023-02-12T02:09:08;-1.00;99.90
4647;DHT22;2336;47.822;7.564;2023-02-12T02:11:35;-1.10;99.90
4647;DHT22;2336;47.822;7.564;2023-02-12T02:14:19;-1.10;99.90
4647;DHT22;2336;47.822;7.564;2023-02-12T02:17:23;-1.10;99.90
4647;DHT22;2336;47.822;7.564;2023-02-12T02:23:15;-1.30;99.90
4647;DHT22;2336;47.822;7.564;2023-02-12T02:26:21;-1.30;99.90
4647;DHT22;2336;47.822;7.564;2023-02-12T02:29:02;-1.50;99.90
4647;DHT22;2336;47.822;7.564;2023-02-12T02:31:34;-1.50;99.90
4647;DHT22;2336;47.822;7.564;2023-02-12T02:34:09;-1.60;99.90
4647;DHT22;2336;47.822;7.564;2023-02-12T02:36:40;-1.70;99.90
4647;DHT22;2336;47.822;7.564;2023-02-12T02:39:16;-1.70;99.90
4647;DHT22;2336;47.822;7.564;2023-02-12T02:41:47;-1.80;99.90
4647;DHT22;2336;47.822;7.564;2023-02-12T02:44:17;-1.70;99.90
4647;DHT22;2336;47.822;7.564;2023-02-12T02:46:51;-1.70;99.90
4647;DHT22;2336;47.822;7.564;2023-02-12T02:49:22;-1.80;99.90
4647;DHT22;2336;47.822;7.564;2023-02-12T02:51:53;-1.80;99.90
4647;DHT22;2336;47.822;7.564;2023-02-12T02:54:25;-2.00;99.90
4647;DHT22;2336;47.822;7.564;2023-02-12T02:56:58;-2.00;99.90
4647;DHT22;2336;47.822;7.564;2023-02-12T02:59:27;-2.10;99.90
4647;DHT22;2336;47.822;7.564;2023-02-12T03:02:00;-2.10;99.90
4647;DHT22;2336;47.822;7.564;2023-02-12T03:04:31;-2.10;99.90
4647;DHT22;2336;47.822;7.564;2023-02-12T03:07:02;-2.20;99.90
4647;DHT22;2336;47.822;7.564;2023-02-12T03:09:33;-2.20;99.90
4647;DHT22;2336;47.822;7.564;2023-02-12T03:12:07;-2.30;99.90
4647;DHT22;2336;47.822;7.564;2023-02-12T03:14:38;-2.30;99.90
4647;DHT22;2336;47.822;7.564;2023-02-12T03:17:09;-2.30;99.90
4647;DHT22;2336;47.822;7.564;2023-02-12T03:19:41;-2.30;99.90
4647;DHT22;2336;47.822;7.564;2023-02-12T03:22:11;-2.30;99.90
4647;DHT22;2336;47.822;7.564;2023-02-12T03:24:42;-2.30;99.90
4647;DHT22;2336;47.822;7.564;2023-02-12T03:27:13;-2.30;99.90
4647;DHT22;2336;47.822;7.564;2023-02-12T03:29:41;-2.30;99.90
4647;DHT22;2336;47.822;7.564;2023-02-12T03:32:22;-2.30;99.90
4647;DHT22;2336;47.822;7.564;2023-02-12T03:34:54;-2.40;99.90
4647;DHT22;2336;47.822;7.564;2023-02-12T03:37:28;-2.40;99.90
4647;DHT22;2336;47.822;7.564;2023-02-12T03:39:59;-2.40;99.90
4647;DHT22;2336;47.822;7.564;2023-02-12T03:42:37;-2.50;99.90
4647;DHT22;2336;47.822;7.564;2023-02-12T03:45:12;-2.50;99.90
4647;DHT22;2336;47.822;7.564;2023-02-12T03:47:47;-2.50;99.90
4647;DHT22;2336;47.822;7.564;2023-02-12T03:50:17;-2.50;99.90
4647;DHT22;2336;47.822;7.564;2023-02-12T03:52:49;-2.50;99.90
4647;DHT22;2336;47.822;7.564;2023-02-12T03:55:16;-2.60;99.90
4647;DHT22;2336;47.822;7.564;2023-02-12T03:57:45;-2.60;99.90
4647;DHT22;2336;47.822;7.564;2023-02-12T04:00:16;-2.70;99.90
4647;DHT22;2336;47.822;7.564;2023-02-12T04:02:45;-2.70;99.90
4647;DHT22;2336;47.822;7.564;2023-02-12T04:05:17;-2.70;99.90
4647;DHT22;2336;47.822;7.564;2023-02-12T04:07:44;-2.70;99.90
4647;DHT22;2336;47.822;7.564;2023-02-12T04:10:11;-2.70;99.90
4647;DHT22;2336;47.822;7.564;2023-02-12T04:12:41;-2.60;99.90
4647;DHT22;2336;47.822;7.564;2023-02-12T04:15:34;-2.60;99.90
4647;DHT22;2336;47.822;7.564;2023-02-12T04:18:09;-2.60;99.90
4647;DHT22;2336;47.822;7.564;2023-02-12T04:20:47;-2.60;99.90
4647;DHT22;2336;47.822;7.564;2023-02-12T04:23:29;-2.60;99.90
4647;DHT22;2336;47.822;7.564;2023-02-12T04:26:05;-2.70;99.90
4647;DHT22;2336;47.822;7.564;2023-02-12T04:28:42;-2.70;99.90
4647;DHT22;2336;47.822;7.564;2023-02-12T04:31:15;-2.70;99.90
4647;DHT22;2336;47.822;7.564;2023-02-12T04:33:50;-2.70;99.90
4647;DHT22;2336;47.822;7.564;2023-02-12T04:36:24;-2.70;99.90
4647;DHT22;2336;47.822;7.564;2023-02-12T04:38:54;-2.70;99.90
4647;DHT22;2336;47.822;7.564;2023-02-12T04:41:23;-2.70;99.90
4647;DHT22;2336;47.822;7.564;2023-02-12T04:43:51;-2.80;99.90
4647;DHT22;2336;47.822;7.564;2023-02-12T04:46:17;-2.80;99.90
4647;DHT22;2336;47.822;7.564;2023-02-12T04:48:51;-2.80;99.90
4647;DHT22;2336;47.822;7.564;2023-02-12T04:51:18;-2.90;99.90
4647;DHT22;2336;47.822;7.564;2023-02-12T04:53:46;-2.90;99.90
4647;DHT22;2336;47.822;7.564;2023-02-12T04:56:13;-2.90;99.90
4647;DHT22;2336;47.822;7.564;2023-02-12T04:58:41;-2.90;99.90
4647;DHT22;2336;47.822;7.564;2023-02-12T05:01:08;-3.00;99.90
4647;DHT22;2336;47.822;7.564;2023-02-12T05:03:35;-2.90;99.90
4647;DHT22;2336;47.822;7.564;2023-02-12T05:06:08;-2.90;99.90
4647;DHT22;2336;47.822;7.564;2023-02-12T05:08:35;-3.00;99.90
4647;DHT22;2336;47.822;7.564;2023-02-12T05:11:04;-3.00;99.90
4647;DHT22;2336;47.822;7.564;2023-02-12T05:13:31;-3.00;99.90
4647;DHT22;2336;47.822;7.564;2023-02-12T05:15:58;-2.90;99.90
4647;DHT22;2336;47.822;7.564;2023-02-12T05:18:25;-2.90;99.90
4647;DHT22;2336;47.822;7.564;2023-02-12T05:20:56;-2.90;99.90
4647;DHT22;2336;47.822;7.564;2023-02-12T05:23:26;-2.90;99.90
4647;DHT22;2336;47.822;7.564;2023-02-12T05:25:56;-3.00;99.90
4647;DHT22;2336;47.822;7.564;2023-02-12T05:28:23;-3.00;99.90
4647;DHT22;2336;47.822;7.564;2023-02-12T05:30:50;-3.00;99.90
4647;DHT22;2336;47.822;7.564;2023-02-12T05:33:17;-3.00;99.90
4647;DHT22;2336;47.822;7.564;2023-02-12T05:35:43;-3.10;99.90
4647;DHT22;2336;47.822;7.564;2023-02-12T05:38:10;-3.20;99.90
4647;DHT22;2336;47.822;7.564;2023-02-12T05:40:38;-3.20;99.90
4647;DHT22;2336;47.822;7.564;2023-02-12T05:43:07;-3.20;99.90
4647;DHT22;2336;47.822;7.564;2023-02-12T05:45:34;-3.20;99.90
4647;DHT22;2336;47.822;7.564;2023-02-12T05:48:02;-3.20;99.90
4647;DHT22;2336;47.822;7.564;2023-02-12T05:50:29;-3.20;99.90
4647;DHT22;2336;47.822;7.564;2023-02-12T05:52:55;-3.20;99.90
4647;DHT22;2336;47.822;7.564;2023-02-12T05:55:22;-3.30;99.90
4647;DHT22;2336;47.822;7.564;2023-02-12T05:57:51;-3.20;99.90
4647;DHT22;2336;47.822;7.564;2023-02-12T06:00:18;-3.20;99.90
4647;DHT22;2336;47.822;7.564;2023-02-12T06:02:45;-3.20;99.90
4647;DHT22;2336;47.822;7.564;2023-02-12T06:05:12;-3.20;99.90
4647;DHT22;2336;47.822;7.564;2023-02-12T06:07:39;-3.20;99.90
4647;DHT22;2336;47.822;7.564;2023-02-12T06:10:07;-3.20;99.90
4647;DHT22;2336;47.822;7.564;2023-02-12T06:12:33;-3.20;99.90
4647;DHT22;2336;47.822;7.564;2023-02-12T06:15:02;-3.20;99.90
4647;DHT22;2336;47.822;7.564;2023-02-12T06:17:29;-3.30;99.90
4647;DHT22;2336;47.822;7.564;2023-02-12T06:19:56;-3.30;99.90
4647;DHT22;2336;47.822;7.564;2023-02-12T06:22:22;-3.40;99.90
4647;DHT22;2336;47.822;7.564;2023-02-12T06:24:49;-3.40;99.90
4647;DHT22;2336;47.822;7.564;2023-02-12T06:27:16;-3.40;99.90
4647;DHT22;2336;47.822;7.564;2023-02-12T06:29:42;-3.40;99.90
4647;DHT22;2336;47.822;7.564;2023-02-12T06:32:10;-3.40;99.90
4647;DHT22;2336;47.822;7.564;2023-02-12T06:34:39;-3.20;99.90
4647;DHT22;2336;47.822;7.564;2023-02-12T06:37:06;-3.10;99.90
4647;DHT22;2336;47.822;7.564;2023-02-12T06:39:33;-2.90;99.90
4647;DHT22;2336;47.822;7.564;2023-02-12T06:41:59;-2.90;99.90
4647;DHT22;2336;47.822;7.564;2023-02-12T06:44:26;-2.80;99.90
4647;DHT22;2336;47.822;7.564;2023-02-12T06:46:53;-2.70;99.90
4647;DHT22;2336;47.822;7.564;2023-02-12T06:49:21;-2.50;99.90
4647;DHT22;2336;47.822;7.564;2023-02-12T06:51:47;-2.40;99.90
4647;DHT22;2336;47.822;7.564;2023-02-12T06:54:16;-2.30;99.90
4647;DHT22;2336;47.822;7.564;2023-02-12T06:56:43;-2.30;99.90
4647;DHT22;2336;47.822;7.564;2023-02-12T06:59:13;-2.30;99.90
4647;DHT22;2336;47.822;7.564;2023-02-12T07:01:40;-2.40;99.90
4647;DHT22;2336;47.822;7.564;2023-02-12T07:04:06;-2.50;99.90
4647;DHT22;2336;47.822;7.564;2023-02-12T07:06:35;-2.60;99.90
4647;DHT22;2336;47.822;7.564;2023-02-12T07:09:02;-2.60;99.90
4647;DHT22;2336;47.822;7.564;2023-02-12T07:11:30;-2.70;99.90
4647;DHT22;2336;47.822;7.564;2023-02-12T07:13:58;-2.70;99.90
4647;DHT22;2336;47.822;7.564;2023-02-12T07:16:25;-2.70;99.90
4647;DHT22;2336;47.822;7.564;2023-02-12T07:18:52;-2.70;99.90
4647;DHT22;2336;47.822;7.564;2023-02-12T07:21:20;-2.60;99.90
4647;DHT22;2336;47.822;7.564;2023-02-12T07:23:49;-2.60;99.90
4647;DHT22;2336;47.822;7.564;2023-02-12T07:26:17;-2.60;99.90
4647;DHT22;2336;47.822;7.564;2023-02-12T07:28:44;-2.60;99.90
4647;DHT22;2336;47.822;7.564;2023-02-12T07:31:12;-2.60;99.90
4647;DHT22;2336;47.822;7.564;2023-02-12T07:33:40;-2.60;99.90
4647;DHT22;2336;47.822;7.564;2023-02-12T07:36:09;-2.60;99.90
4647;DHT22;2336;47.822;7.564;2023-02-12T07:38:36;-2.60;99.90
4647;DHT22;2336;47.822;7.564;2023-02-12T07:41:11;-2.50;99.90
4647;DHT22;2336;47.822;7.564;2023-02-12T07:43:39;-2.50;99.90
4647;DHT22;2336;47.822;7.564;2023-02-12T07:46:10;-2.40;99.90
4647;DHT22;2336;47.822;7.564;2023-02-12T07:48:37;-2.40;99.90
4647;DHT22;2336;47.822;7.564;2023-02-12T07:51:06;-2.30;99.90
4647;DHT22;2336;47.822;7.564;2023-02-12T07:53:33;-2.30;99.90
4647;DHT22;2336;47.822;7.564;2023-02-12T07:56:05;-2.20;99.90
4647;DHT22;2336;47.822;7.564;2023-02-12T07:58:33;-2.20;99.90
4647;DHT22;2336;47.822;7.564;2023-02-12T08:01:09;-2.10;99.90
4647;DHT22;2336;47.822;7.564;2023-02-12T08:03:35;-2.00;99.90
4647;DHT22;2336;47.822;7.564;2023-02-12T08:06:06;-1.90;99.90
4647;DHT22;2336;47.822;7.564;2023-02-12T08:08:33;-1.80;99.90
4647;DHT22;2336;47.822;7.564;2023-02-12T08:11:03;-1.70;99.90
4647;DHT22;2336;47.822;7.564;2023-02-12T08:13:30;-1.40;99.90
4647;DHT22;2336;47.822;7.564;2023-02-12T08:16:01;-1.20;99.90
4647;DHT22;2336;47.822;7.564;2023-02-12T08:18:29;-1.00;99.90
4647;DHT22;2336;47.822;7.564;2023-02-12T08:21:01;-0.90;99.90
4647;DHT22;2336;47.822;7.564;2023-02-12T08:23:28;-0.70;99.90
4647;DHT22;2336;47.822;7.564;2023-02-12T08:26:02;-0.60;99.90
4647;DHT22;2336;47.822;7.564;2023-02-12T08:28:29;-0.50;99.90
4647;DHT22;2336;47.822;7.564;2023-02-12T08:31:00;-0.40;99.90
4647;DHT22;2336;47.822;7.564;2023-02-12T08:33:27;-0.30;99.90
4647;DHT22;2336;47.822;7.564;2023-02-12T08:36:00;-0.30;99.90
4647;DHT22;2336;47.822;7.564;2023-02-12T08:38:27;-0.20;99.90
4647;DHT22;2336;47.822;7.564;2023-02-12T08:40:53;-0.10;99.90
4647;DHT22;2336;47.822;7.564;2023-02-12T08:43:20;0.00;99.90
4647;DHT22;2336;47.822;7.564;2023-02-12T08:45:47;0.10;99.90
4647;DHT22;2336;47.822;7.564;2023-02-12T08:48:15;0.10;99.90
4647;DHT22;2336;47.822;7.564;2023-02-12T08:50:42;0.20;99.90
4647;DHT22;2336;47.822;7.564;2023-02-12T08:53:08;0.30;99.90
4647;DHT22;2336;47.822;7.564;2023-02-12T08:55:35;0.30;99.90
4647;DHT22;2336;47.822;7.564;2023-02-12T08:58:02;0.50;99.90
4647;DHT22;2336;47.822;7.564;2023-02-12T09:00:29;0.60;99.90
4647;DHT22;2336;47.822;7.564;2023-02-12T09:02:55;0.70;99.90
4647;DHT22;2336;47.822;7.564;2023-02-12T09:05:24;0.90;99.90
4647;DHT22;2336;47.822;7.564;2023-02-12T09:07:51;1.00;99.90
4647;DHT22;2336;47.822;7.564;2023-02-12T09:10:19;1.20;99.90
4647;DHT22;2336;47.822;7.564;2023-02-12T09:12:45;1.30;99.90
4647;DHT22;2336;47.822;7.564;2023-02-12T09:15:12;1.40;99.90
4647;DHT22;2336;47.822;7.564;2023-02-12T09:17:39;1.50;99.90
4647;DHT22;2336;47.822;7.564;2023-02-12T09:20:08;1.60;99.90
4647;DHT22;2336;47.822;7.564;2023-02-12T09:22:37;1.70;99.90
4647;DHT22;2336;47.822;7.564;2023-02-12T09:25:04;1.80;99.90
4647;DHT22;2336;47.822;7.564;2023-02-12T09:27:31;1.90;99.90
4647;DHT22;2336;47.822;7.564;2023-02-12T09:29:57;2.00;99.90
4647;DHT22;2336;47.822;7.564;2023-02-12T09:32:24;2.10;99.90
4647;DHT22;2336;47.822;7.564;2023-02-12T09:34:51;2.30;99.90
4647;DHT22;2336;47.822;7.564;2023-02-12T09:37:17;2.50;99.90
4647;DHT22;2336;47.822;7.564;2023-02-12T09:39:46;2.60;99.90
4647;DHT22;2336;47.822;7.564;2023-02-12T09:42:27;2.70;99.90
4647;DHT22;2336;47.822;7.564;2023-02-12T09:45:07;2.80;99.90
4647;DHT22;2336;47.822;7.564;2023-02-12T09:47:41;2.90;99.90
4647;DHT22;2336;47.822;7.564;2023-02-12T09:50:26;3.00;99.90
4647;DHT22;2336;47.822;7.564;2023-02-12T09:52:55;3.10;99.90
4647;DHT22;2336;47.822;7.564;2023-02-12T09:55:28;3.20;99.90
4647;DHT22;2336;47.822;7.564;2023-02-12T09:57:55;3.20;99.90
4647;DHT22;2336;47.822;7.564;2023-02-12T10:00:24;3.30;99.90
4647;DHT22;2336;47.822;7.564;2023-02-12T10:02:55;3.50;99.90
4647;DHT22;2336;47.822;7.564;2023-02-12T10:05:26;3.60;99.90
4647;DHT22;2336;47.822;7.564;2023-02-12T10:08:06;3.70;99.90
4647;DHT22;2336;47.822;7.564;2023-02-12T10:10:46;3.80;99.90
4647;DHT22;2336;47.822;7.564;2023-02-12T10:13:25;3.90;99.90
4647;DHT22;2336;47.822;7.564;2023-02-12T10:15:56;4.00;99.90
4647;DHT22;2336;47.822;7.564;2023-02-12T10:18:41;4.10;99.90
4647;DHT22;2336;47.822;7.564;2023-02-12T10:21:24;4.10;99.90
4647;DHT22;2336;47.822;7.564;2023-02-12T10:24:04;4.40;99.90
4647;DHT22;2336;47.822;7.564;2023-02-12T10:26:41;4.50;99.90
4647;DHT22;2336;47.822;7.564;2023-02-12T10:29:12;4.70;99.90
4647;DHT22;2336;47.822;7.564;2023-02-12T10:31:42;4.80;99.90
4647;DHT22;2336;47.822;7.564;2023-02-12T10:34:16;5.10;99.90
4647;DHT22;2336;47.822;7.564;2023-02-12T10:36:44;5.30;99.90
4647;DHT22;2336;47.822;7.564;2023-02-12T10:39:15;5.40;99.90
4647;DHT22;2336;47.822;7.564;2023-02-12T10:41:52;5.30;99.90
4647;DHT22;2336;47.822;7.564;2023-02-12T10:44:20;5.60;99.90
4647;DHT22;2336;47.822;7.564;2023-02-12T10:46:47;5.70;99.90
4647;DHT22;2336;47.822;7.564;2023-02-12T10:49:16;5.40;99.90
4647;DHT22;2336;47.822;7.564;2023-02-12T10:51:59;5.50;99.90
4647;DHT22;2336;47.822;7.564;2023-02-12T10:54:35;5.60;99.90
4647;DHT22;2336;47.822;7.564;2023-02-12T10:57:10;5.70;99.90
4647;DHT22;2336;47.822;7.564;2023-02-12T10:59:38;5.90;99.90
4647;DHT22;2336;47.822;7.564;2023-02-12T11:02:18;5.90;99.90
4647;DHT22;2336;47.822;7.564;2023-02-12T11:04:45;5.70;99.90
4647;DHT22;2336;47.822;7.564;2023-02-12T11:07:12;5.80;99.90
4647;DHT22;2336;47.822;7.564;2023-02-12T11:09:41;5.90;99.90
4647;DHT22;2336;47.822;7.564;2023-02-12T11:12:27;6.00;99.90
4647;DHT22;2336;47.822;7.564;2023-02-12T11:14:58;6.20;99.90
4647;DHT22;2336;47.822;7.564;2023-02-12T11:17:28;6.40;99.90
4647;DHT22;2336;47.822;7.564;2023-02-12T11:20:24;6.70;99.90
4647;DHT22;2336;47.822;7.564;2023-02-12T11:22:55;6.80;99.90
4647;DHT22;2336;47.822;7.564;2023-02-12T11:25:23;6.80;99.90
4647;DHT22;2336;47.822;7.564;2023-02-12T11:28:05;6.80;99.90
4647;DHT22;2336;47.822;7.564;2023-02-12T11:30:32;6.80;99.90
4647;DHT22;2336;47.822;7.564;2023-02-12T11:33:16;6.60;99.90
4647;DHT22;2336;47.822;7.564;2023-02-12T11:35:51;6.70;99.90
4647;DHT22;2336;47.822;7.564;2023-02-12T11:38:28;6.70;99.90
4647;DHT22;2336;47.822;7.564;2023-02-12T11:40:59;6.60;99.90
4647;DHT22;2336;47.822;7.564;2023-02-12T11:43:28;6.60;99.90
4647;DHT22;2336;47.822;7.564;2023-02-12T11:45:57;6.50;99.90
4647;DHT22;2336;47.822;7.564;2023-02-12T11:48:28;6.60;99.90
4647;DHT22;2336;47.822;7.564;2023-02-12T11:50:57;6.70;99.90
4647;DHT22;2336;47.822;7.564;2023-02-12T11:53:29;6.80;99.90
4647;DHT22;2336;47.822;7.564;2023-02-12T11:55:59;6.80;99.90
4647;DHT22;2336;47.822;7.564;2023-02-12T11:58:28;6.90;99.90
4647;DHT22;2336;47.822;7.564;2023-02-12T12:01:02;7.00;99.90
4647;DHT22;2336;47.822;7.564;2023-02-12T12:03:33;7.40;99.90
4647;DHT22;2336;47.822;7.564;2023-02-12T12:06:05;7.80;99.90
4647;DHT22;2336;47.822;7.564;2023-02-12T12:08:38;8.10;99.90
4647;DHT22;2336;47.822;7.564;2023-02-12T12:11:10;8.70;99.90
4647;DHT22;2336;47.822;7.564;2023-02-12T12:13:45;9.60;99.90
4647;DHT22;2336;47.822;7.564;2023-02-12T12:16:18;9.50;99.90
4647;DHT22;2336;47.822;7.564;2023-02-12T12:19:14;9.30;99.90
4647;DHT22;2336;47.822;7.564;2023-02-12T12:22:03;9.80;99.90
4647;DHT22;2336;47.822;7.564;2023-02-12T12:24:38;11.00;99.90
4647;DHT22;2336;47.822;7.564;2023-02-12T12:27:13;11.60;99.90
4647;DHT22;2336;47.822;7.564;2023-02-12T12:30:17;12.10;99.90
4647;DHT22;2336;47.822;7.564;2023-02-12T12:32:46;11.80;99.90
4647;DHT22;2336;47.822;7.564;2023-02-12T12:35:18;10.90;99.90
4647;DHT22;2336;47.822;7.564;2023-02-12T12:37:51;10.90;99.90
4647;DHT22;2336;47.822;7.564;2023-02-12T12:40:34;10.30;99.90
4647;DHT22;2336;47.822;7.564;2023-02-12T12:43:13;10.30;99.90
4647;DHT22;2336;47.822;7.564;2023-02-12T12:46:06;10.50;99.90
4647;DHT22;2336;47.822;7.564;2023-02-12T12:49:01;10.90;99.90
4647;DHT22;2336;47.822;7.564;2023-02-12T12:51:42;10.10;99.90
4647;DHT22;2336;47.822;7.564;2023-02-12T12:54:27;10.10;99.90
4647;DHT22;2336;47.822;7.564;2023-02-12T12:57:05;10.00;99.90
4647;DHT22;2336;47.822;7.564;2023-02-12T12:59:50;9.90;99.90
4647;DHT22;2336;47.822;7.564;2023-02-12T13:02:56;9.30;99.90
4647;DHT22;2336;47.822;7.564;2023-02-12T13:05:49;9.10;99.90
4647;DHT22;2336;47.822;7.564;2023-02-12T13:08:32;8.80;99.90
4647;DHT22;2336;47.822;7.564;2023-02-12T13:11:10;9.40;99.90
4647;DHT22;2336;47.822;7.564;2023-02-12T13:13:43;9.50;99.90
4647;DHT22;2336;47.822;7.564;2023-02-12T13:16:13;9.60;99.90
4647;DHT22;2336;47.822;7.564;2023-02-12T13:18:53;9.60;99.90
4647;DHT22;2336;47.822;7.564;2023-02-12T13:21:32;9.20;99.90
4647;DHT22;2336;47.822;7.564;2023-02-12T13:24:04;9.50;99.90
4647;DHT22;2336;47.822;7.564;2023-02-12T13:26:41;9.50;99.90
4647;DHT22;2336;47.822;7.564;2023-02-12T13:29:14;9.20;99.90
4647;DHT22;2336;47.822;7.564;2023-02-12T13:31:48;9.10;99.90
4647;DHT22;2336;47.822;7.564;2023-02-12T13:34:17;9.00;99.90
4647;DHT22;2336;47.822;7.564;2023-02-12T13:36:45;9.00;99.90
4647;DHT22;2336;47.822;7.564;2023-02-12T13:39:21;9.00;99.90
4647;DHT22;2336;47.822;7.564;2023-02-12T13:42:00;8.90;99.90
4647;DHT22;2336;47.822;7.564;2023-02-12T13:44:32;8.90;99.90
4647;DHT22;2336;47.822;7.564;2023-02-12T13:47:08;8.80;99.90
4647;DHT22;2336;47.822;7.564;2023-02-12T13:49:45;8.80;99.90
4647;DHT22;2336;47.822;7.564;2023-02-12T13:52:22;8.90;99.90
4647;DHT22;2336;47.822;7.564;2023-02-12T13:54:59;9.00;99.90
4647;DHT22;2336;47.822;7.564;2023-02-12T13:57:30;9.10;99.90
4647;DHT22;2336;47.822;7.564;2023-02-12T13:59:56;9.10;99.90
4647;DHT22;2336;47.822;7.564;2023-02-12T14:02:43;9.10;99.90
4647;DHT22;2336;47.822;7.564;2023-02-12T14:05:24;9.30;99.90
4647;DHT22;2336;47.822;7.564;2023-02-12T14:07:53;9.30;99.90
4647;DHT22;2336;47.822;7.564;2023-02-12T14:10:24;9.50;99.90
4647;DHT22;2336;47.822;7.564;2023-02-12T14:12:52;9.60;99.90
4647;DHT22;2336;47.822;7.564;2023-02-12T14:15:31;9.70;99.90
4647;DHT22;2336;47.822;7.564;2023-02-12T14:18:21;9.70;99.90
4647;DHT22;2336;47.822;7.564;2023-02-12T14:24:48;10.10;99.90
4647;DHT22;2336;47.822;7.564;2023-02-12T14:27:34;10.20;99.90
4647;DHT22;2336;47.822;7.564;2023-02-12T14:30:25;10.50;99.90
4647;DHT22;2336;47.822;7.564;2023-02-12T14:33:17;10.70;99.90
4647;DHT22;2336;47.822;7.564;2023-02-12T14:35:45;11.10;99.90
4647;DHT22;2336;47.822;7.564;2023-02-12T14:41:30;10.40;99.90
4647;DHT22;2336;47.822;7.564;2023-02-12T14:50:18;10.50;99.90
4647;DHT22;2336;47.822;7.564;2023-02-12T14:52:51;10.50;99.90
4647;DHT22;2336;47.822;7.564;2023-02-12T14:55:23;10.60;99.90
4647;DHT22;2336;47.822;7.564;2023-02-12T14:57:55;10.60;99.90
4647;DHT22;2336;47.822;7.564;2023-02-12T15:00:27;10.60;99.90
4647;DHT22;2336;47.822;7.564;2023-02-12T15:02:59;10.30;99.90
4647;DHT22;2336;47.822;7.564;2023-02-12T15:05:31;10.30;99.90
4647;DHT22;2336;47.822;7.564;2023-02-12T15:08:01;10.30;99.90
4647;DHT22;2336;47.822;7.564;2023-02-12T15:10:30;10.40;99.90
4647;DHT22;2336;47.822;7.564;2023-02-12T15:13:12;10.30;99.90
4647;DHT22;2336;47.822;7.564;2023-02-12T15:15:45;10.40;99.90
4647;DHT22;2336;47.822;7.564;2023-02-12T15:18:19;10.40;99.90
4647;DHT22;2336;47.822;7.564;2023-02-12T15:20:50;10.70;99.90
4647;DHT22;2336;47.822;7.564;2023-02-12T15:23:37;10.60;99.90
4647;DHT22;2336;47.822;7.564;2023-02-12T15:26:08;10.30;99.90
4647;DHT22;2336;47.822;7.564;2023-02-12T15:28:39;10.00;99.90
4647;DHT22;2336;47.822;7.564;2023-02-12T15:31:07;9.90;99.90
4647;DHT22;2336;47.822;7.564;2023-02-12T15:33:38;9.90;99.90
4647;DHT22;2336;47.822;7.564;2023-02-12T15:36:07;9.90;99.90
4647;DHT22;2336;47.822;7.564;2023-02-12T15:38:36;9.90;99.90
4647;DHT22;2336;47.822;7.564;2023-02-12T15:41:04;9.80;99.90
4647;DHT22;2336;47.822;7.564;2023-02-12T15:43:37;9.60;99.90
4647;DHT22;2336;47.822;7.564;2023-02-12T15:46:14;9.50;99.90
4647;DHT22;2336;47.822;7.564;2023-02-12T15:48:41;9.50;99.90
4647;DHT22;2336;47.822;7.564;2023-02-12T15:51:13;9.40;99.90
4647;DHT22;2336;47.822;7.564;2023-02-12T15:53:42;9.40;99.90
4647;DHT22;2336;47.822;7.564;2023-02-12T15:56:11;9.30;99.90
4647;DHT22;2336;47.822;7.564;2023-02-12T15:58:42;9.30;99.90
4647;DHT22;2336;47.822;7.564;2023-02-12T16:01:15;9.20;99.90
4647;DHT22;2336;47.822;7.564;2023-02-12T16:03:42;9.10;99.90
4647;DHT22;2336;47.822;7.564;2023-02-12T16:06:11;9.10;99.90
4647;DHT22;2336;47.822;7.564;2023-02-12T16:08:43;9.00;99.90
4647;DHT22;2336;47.822;7.564;2023-02-12T16:11:12;8.90;99.90
4647;DHT22;2336;47.822;7.564;2023-02-12T16:13:42;8.80;99.90
4647;DHT22;2336;47.822;7.564;2023-02-12T16:16:19;8.80;99.90
4647;DHT22;2336;47.822;7.564;2023-02-12T16:18:46;8.70;99.90
4647;DHT22;2336;47.822;7.564;2023-02-12T16:21:28;8.60;99.90
4647;DHT22;2336;47.822;7.564;2023-02-12T16:23:54;8.40;99.90
4647;DHT22;2336;47.822;7.564;2023-02-12T16:26:23;8.20;99.90
4647;DHT22;2336;47.822;7.564;2023-02-12T16:28:52;8.10;99.90
4647;DHT22;2336;47.822;7.564;2023-02-12T16:31:21;8.00;99.90
4647;DHT22;2336;47.822;7.564;2023-02-12T16:33:49;7.90;99.90
4647;DHT22;2336;47.822;7.564;2023-02-12T16:36:28;7.80;99.90
4647;DHT22;2336;47.822;7.564;2023-02-12T16:38:57;7.60;99.90
4647;DHT22;2336;47.822;7.564;2023-02-12T16:41:26;7.50;99.90
4647;DHT22;2336;47.822;7.564;2023-02-12T16:44:27;7.40;99.90
4647;DHT22;2336;47.822;7.564;2023-02-12T16:46:58;7.20;99.90
4647;DHT22;2336;47.822;7.564;2023-02-12T16:49:26;7.10;99.90
4647;DHT22;2336;47.822;7.564;2023-02-12T16:55:00;6.80;99.90